createdAt,value
2022-09-28T00:01:23.643Z,9.24
2022-09-28T00:03:51.327Z,9.18
2022-09-28T00:06:19.555Z,9.14
2022-09-28T00:08:46.287Z,9.10
2022-09-28T00:11:15.227Z,9.12
2022-09-28T00:13:42.837Z,9.17
2022-09-28T00:16:11.610Z,9.19
2022-09-28T00:18:38.011Z,9.17
2022-09-28T00:21:12.799Z,9.14
2022-09-28T00:23:58.062Z,9.13
2022-09-28T00:26:24.586Z,9.12
2022-09-28T00:28:52.118Z,9.08
2022-09-28T00:31:19.055Z,9.04
2022-09-28T00:33:45.507Z,9.01
2022-09-28T00:36:11.888Z,8.95
2022-09-28T00:38:40.562Z,8.90
2022-09-28T00:41:08.098Z,8.90
2022-09-28T00:43:34.497Z,8.89
2022-09-28T00:46:03.798Z,8.82
2022-09-28T00:48:33.435Z,8.81
2022-09-28T00:51:00.750Z,8.83
2022-09-28T00:53:30.061Z,8.84
2022-09-28T00:56:03.651Z,8.84
2022-09-28T00:58:31.395Z,8.86
2022-09-28T01:00:58.114Z,8.84
2022-09-28T01:03:25.411Z,8.79
2022-09-28T01:05:51.926Z,8.83
2022-09-28T01:08:21.012Z,8.86
2022-09-28T01:10:51.229Z,8.80
2022-09-28T01:13:17.695Z,8.81
2022-09-28T01:16:23.398Z,8.78
2022-09-28T01:18:58.936Z,8.77
2022-09-28T01:21:26.625Z,8.79
2022-09-28T01:24:16.930Z,8.84
2022-09-28T01:27:06.001Z,8.77
2022-09-28T01:30:00.335Z,8.68
2022-09-28T01:32:58.543Z,8.67
2022-09-28T01:35:47.879Z,8.56
2022-09-28T01:38:17.411Z,8.46
2022-09-28T01:40:44.033Z,8.35
2022-09-28T01:43:22.306Z,8.23
2022-09-28T01:45:55.294Z,8.11
2022-09-28T01:48:26.283Z,8.05
2022-09-28T01:50:54.644Z,7.99
2022-09-28T01:53:32.450Z,7.94
2022-09-28T01:56:01.676Z,7.87
2022-09-28T01:58:30.930Z,7.78
2022-09-28T02:01:00.954Z,7.76
2022-09-28T02:03:58.659Z,7.68
2022-09-28T02:06:27.940Z,7.63
2022-09-28T02:08:59.229Z,7.63
2022-09-28T02:11:25.636Z,7.58
2022-09-28T02:13:56.724Z,7.60
2022-09-28T02:16:32.582Z,7.64
2022-09-28T02:18:58.973Z,7.65
2022-09-28T02:21:31.784Z,7.69
2022-09-28T02:24:02.418Z,7.71
2022-09-28T02:26:34.806Z,7.76
2022-09-28T02:29:01.216Z,7.80
2022-09-28T02:31:27.940Z,7.83
2022-09-28T02:33:55.090Z,7.89
2022-09-28T02:36:21.848Z,7.93
2022-09-28T02:38:48.252Z,7.95
2022-09-28T02:41:38.039Z,7.95
2022-09-28T02:44:23.240Z,8.02
2022-09-28T02:47:11.077Z,8.06
2022-09-28T02:49:41.489Z,8.13
2022-09-28T02:52:37.403Z,8.16
2022-09-28T02:55:32.313Z,8.19
2022-09-28T02:58:18.472Z,8.22
2022-09-28T03:00:49.923Z,8.25
2022-09-28T03:03:21.442Z,8.29
2022-09-28T03:06:11.601Z,8.25
2022-09-28T03:08:48.979Z,8.26
2022-09-28T03:11:21.533Z,8.29
2022-09-28T03:13:47.927Z,8.31
2022-09-28T03:16:16.185Z,8.32
2022-09-28T03:18:43.567Z,8.35
2022-09-28T03:21:11.171Z,8.39
2022-09-28T03:23:37.667Z,8.40
2022-09-28T03:26:04.075Z,8.38
2022-09-28T03:28:30.466Z,8.39
2022-09-28T03:30:56.938Z,8.41
2022-09-28T03:33:23.418Z,8.39
2022-09-28T03:35:50.407Z,8.34
2022-09-28T03:38:18.322Z,8.32
2022-09-28T03:40:52.334Z,8.31
2022-09-28T03:43:18.760Z,8.31
2022-09-28T03:45:51.973Z,8.35
2022-09-28T03:48:24.503Z,8.35
2022-09-28T03:50:54.419Z,8.33
2022-09-28T03:53:20.840Z,8.29
2022-09-28T03:55:47.313Z,8.26
2022-09-28T03:58:13.707Z,8.21
2022-09-28T04:00:40.133Z,8.16
2022-09-28T04:03:06.595Z,8.13
2022-09-28T04:05:33.005Z,8.08
2022-09-28T04:07:59.412Z,8.02
2022-09-28T04:10:25.901Z,8.02
2022-09-28T04:12:56.166Z,8.01
2022-09-28T04:15:25.984Z,8.01
2022-09-28T04:17:52.607Z,8.03
2022-09-28T04:20:18.997Z,8.06
2022-09-28T04:22:45.402Z,8.09
2022-09-28T04:25:11.893Z,8.12
2022-09-28T04:27:56.915Z,8.14
2022-09-28T04:30:23.432Z,8.15
2022-09-28T04:32:49.836Z,8.14
2022-09-28T04:35:16.422Z,8.13
2022-09-28T04:37:42.855Z,8.15
2022-09-28T04:40:09.685Z,8.15
2022-09-28T04:42:36.448Z,8.18
2022-09-28T04:45:04.700Z,8.22
2022-09-28T04:47:31.081Z,8.23
2022-09-28T04:49:57.452Z,8.21
2022-09-28T04:52:23.877Z,8.25
2022-09-28T04:54:50.276Z,8.26
2022-09-28T04:57:16.674Z,8.23
2022-09-28T04:59:43.038Z,8.21
2022-09-28T05:02:09.491Z,8.23
2022-09-28T05:04:35.928Z,8.25
2022-09-28T05:07:02.307Z,8.29
2022-09-28T05:09:28.787Z,8.25
2022-09-28T05:11:55.198Z,8.22
2022-09-28T05:14:24.616Z,8.20
2022-09-28T05:16:51.078Z,8.21
2022-09-28T05:19:17.622Z,8.24
2022-09-28T05:21:45.154Z,8.26
2022-09-28T05:24:11.867Z,8.28
2022-09-28T05:26:38.246Z,8.24
2022-09-28T05:29:04.660Z,8.20
2022-09-28T05:31:32.322Z,8.20
2022-09-28T05:33:58.822Z,8.23
2022-09-28T05:36:27.339Z,8.23
2022-09-28T05:38:53.733Z,8.22
2022-09-28T05:41:20.145Z,8.17
2022-09-28T05:43:46.525Z,8.15
2022-09-28T05:46:13.039Z,8.19
2022-09-28T05:48:39.518Z,8.18
2022-09-28T05:51:06.144Z,8.20
2022-09-28T05:53:32.535Z,8.17
2022-09-28T05:55:59.386Z,8.17
2022-09-28T05:58:25.754Z,8.21
2022-09-28T06:00:56.106Z,8.15
2022-09-28T06:03:22.640Z,8.18
2022-09-28T06:05:49.127Z,8.20
2022-09-28T06:08:15.564Z,8.23
2022-09-28T06:10:42.025Z,8.27
2022-09-28T06:13:08.478Z,8.28
2022-09-28T06:15:35.351Z,8.30
2022-09-28T06:18:06.367Z,8.30
2022-09-28T06:20:34.831Z,8.32
2022-09-28T06:23:01.316Z,8.33
2022-09-28T06:25:27.746Z,8.36
2022-09-28T06:27:55.762Z,8.36
2022-09-28T06:30:24.203Z,8.35
2022-09-28T06:33:01.317Z,8.38
2022-09-28T06:35:30.286Z,8.37
2022-09-28T06:37:57.220Z,8.40
2022-09-28T06:40:23.733Z,8.40
2022-09-28T06:43:01.138Z,8.43
2022-09-28T06:45:28.468Z,8.44
2022-09-28T06:47:59.384Z,8.45
2022-09-28T06:50:26.940Z,8.49
2022-09-28T06:52:53.759Z,8.51
2022-09-28T06:55:21.193Z,8.56
2022-09-28T06:57:48.019Z,8.60
2022-09-28T07:00:14.828Z,8.63
2022-09-28T07:02:41.240Z,8.66
2022-09-28T07:05:09.513Z,8.69
2022-09-28T07:07:35.938Z,8.71
2022-09-28T07:10:02.374Z,8.74
2022-09-28T07:12:30.153Z,8.76
2022-09-28T07:14:57.570Z,8.85
2022-09-28T07:17:24.080Z,8.90
2022-09-28T07:19:52.661Z,8.93
2022-09-28T07:22:24.786Z,8.96
2022-09-28T07:24:57.694Z,9.05
2022-09-28T07:27:28.714Z,9.11
2022-09-28T07:29:55.375Z,9.17
2022-09-28T07:32:22.035Z,9.20
2022-09-28T07:34:48.734Z,9.23
2022-09-28T07:37:15.768Z,9.31
2022-09-28T07:40:00.865Z,9.31
2022-09-28T07:42:29.872Z,9.37
2022-09-28T07:44:57.290Z,9.40
2022-09-28T07:47:30.891Z,9.52
2022-09-28T07:50:00.424Z,9.57
2022-09-28T07:52:28.623Z,9.62
2022-09-28T07:54:55.522Z,9.57
2022-09-28T07:57:22.210Z,9.64
2022-09-28T07:59:49.746Z,9.66
2022-09-28T08:02:20.180Z,9.71
2022-09-28T08:04:47.820Z,9.63
2022-09-28T08:07:17.133Z,9.62
2022-09-28T08:09:45.520Z,9.64
2022-09-28T08:12:12.514Z,9.67
2022-09-28T08:14:39.050Z,9.68
2022-09-28T08:17:06.097Z,9.76
2022-09-28T08:19:51.140Z,9.83
2022-09-28T08:22:18.775Z,9.79
2022-09-28T08:24:48.470Z,9.90
2022-09-28T08:27:15.380Z,9.94
2022-09-28T08:29:42.505Z,9.93
2022-09-28T08:32:09.373Z,9.97
2022-09-28T08:34:39.634Z,9.94
2022-09-28T08:37:06.784Z,9.96
2022-09-28T08:39:34.743Z,10.04
2022-09-28T08:42:30.608Z,10.02
2022-09-28T08:44:58.866Z,10.02
2022-09-28T08:47:50.028Z,10.01
2022-09-28T08:50:18.173Z,9.97
2022-09-28T08:52:45.411Z,9.97
2022-09-28T08:55:18.637Z,10.04
2022-09-28T08:57:54.137Z,10.03
2022-09-28T09:00:23.151Z,10.04
2022-09-28T09:02:49.601Z,10.05
2022-09-28T09:05:19.022Z,10.03
2022-09-28T09:07:48.533Z,10.02
2022-09-28T09:10:28.570Z,10.07
2022-09-28T09:13:04.195Z,10.01
2022-09-28T09:15:43.324Z,10.03
2022-09-28T09:18:19.837Z,10.01
2022-09-28T09:20:57.192Z,9.91
2022-09-28T09:23:50.005Z,9.96
2022-09-28T09:26:22.906Z,10.02
2022-09-28T09:28:57.735Z,10.04
2022-09-28T09:31:38.153Z,10.05
2022-09-28T09:34:31.873Z,10.08
2022-09-28T09:37:13.497Z,10.17
2022-09-28T09:39:51.264Z,10.20
2022-09-28T09:42:37.236Z,10.10
2022-09-28T09:45:18.934Z,10.13
2022-09-28T09:47:50.662Z,10.21
2022-09-28T09:50:35.420Z,10.23
2022-09-28T09:53:20.824Z,10.18
2022-09-28T09:55:48.319Z,10.29
2022-09-28T09:58:29.592Z,10.25
2022-09-28T10:00:58.361Z,10.28
2022-09-28T10:03:31.924Z,10.33
2022-09-28T10:06:00.594Z,10.33
2022-09-28T10:08:27.108Z,10.30
2022-09-28T10:10:56.617Z,10.32
2022-09-28T10:13:23.350Z,10.38
2022-09-28T10:15:51.352Z,10.37
2022-09-28T10:18:19.211Z,10.32
2022-09-28T10:20:45.601Z,10.37
2022-09-28T10:23:20.215Z,10.34
2022-09-28T10:25:46.625Z,10.43
2022-09-28T10:28:16.060Z,10.40
2022-09-28T10:30:44.267Z,10.33
2022-09-28T10:33:31.370Z,10.47
2022-09-28T10:36:00.907Z,10.45
2022-09-28T10:38:28.353Z,10.52
2022-09-28T10:40:55.773Z,10.48
2022-09-28T10:43:23.059Z,10.34
2022-09-28T10:45:59.343Z,10.18
2022-09-28T10:48:25.777Z,10.08
2022-09-28T10:51:39.611Z,10.01
2022-09-28T10:54:06.000Z,10.03
2022-09-28T10:56:37.041Z,10.02
2022-09-28T10:59:27.057Z,10.02
2022-09-28T11:01:58.067Z,10.06
2022-09-28T11:04:27.109Z,10.04
2022-09-28T11:06:56.460Z,10.06
2022-09-28T11:09:32.939Z,10.13
2022-09-28T11:11:59.475Z,10.16
2022-09-28T11:14:43.545Z,10.22
2022-09-28T11:17:28.251Z,10.23
2022-09-28T11:19:55.696Z,10.25
2022-09-28T11:22:26.123Z,10.23
2022-09-28T11:24:53.233Z,10.22
2022-09-28T11:27:25.060Z,10.30
2022-09-28T11:30:00.547Z,10.37
2022-09-28T11:32:31.587Z,10.37
2022-09-28T11:35:00.490Z,10.39
2022-09-28T11:38:02.865Z,10.42
2022-09-28T11:40:50.487Z,10.44
2022-09-28T11:43:28.796Z,10.49
2022-09-28T11:46:00.573Z,10.61
2022-09-28T11:48:29.623Z,10.45
2022-09-28T11:51:03.015Z,10.54
2022-09-28T11:54:02.780Z,10.66
2022-09-28T11:56:39.302Z,10.88
2022-09-28T11:59:11.412Z,10.96
2022-09-28T12:01:43.227Z,11.22
2022-09-28T12:04:25.086Z,11.27
2022-09-28T12:07:17.951Z,11.35
2022-09-28T12:09:47.338Z,11.51
2022-09-28T12:12:37.413Z,11.59
2022-09-28T12:15:25.466Z,11.57
2022-09-28T12:17:57.420Z,11.55
2022-09-28T12:20:34.520Z,11.38
2022-09-28T12:23:07.274Z,11.26
2022-09-28T12:25:42.862Z,11.11
2022-09-28T12:28:32.011Z,11.05
2022-09-28T12:31:00.263Z,10.97
2022-09-28T12:33:26.859Z,11.02
2022-09-28T12:36:08.549Z,10.94
2022-09-28T12:38:37.945Z,10.82
2022-09-28T12:41:09.137Z,10.75
2022-09-28T12:43:41.676Z,10.72
2022-09-28T12:46:24.102Z,10.72
2022-09-28T12:51:57.551Z,10.44
2022-09-28T12:54:47.191Z,10.46
2022-09-28T12:57:36.693Z,10.35
2022-09-28T13:00:09.949Z,10.26
2022-09-28T13:03:20.697Z,10.23
2022-09-28T13:05:49.796Z,10.12
2022-09-28T13:08:34.484Z,10.00
2022-09-28T13:11:11.175Z,10.04
2022-09-28T13:13:54.866Z,10.06
2022-09-28T13:16:24.359Z,10.20
2022-09-28T13:19:42.285Z,10.26
2022-09-28T13:22:30.618Z,10.25
2022-09-28T13:24:58.399Z,10.23
2022-09-28T13:27:36.122Z,10.24
2022-09-28T13:30:06.150Z,10.30
2022-09-28T13:32:32.716Z,10.30
2022-09-28T13:34:59.150Z,10.31
2022-09-28T13:37:25.765Z,10.25
2022-09-28T13:39:59.072Z,10.35
2022-09-28T13:42:47.488Z,10.44
2022-09-28T13:45:23.021Z,10.37
2022-09-28T13:48:16.412Z,10.26
2022-09-28T13:51:06.595Z,10.23
2022-09-28T13:53:57.306Z,10.13
2022-09-28T13:56:51.161Z,10.31
2022-09-28T13:59:27.693Z,10.24
2022-09-28T14:02:06.603Z,10.27
2022-09-28T14:04:57.124Z,10.27
2022-09-28T14:07:35.807Z,10.44
2022-09-28T14:10:19.172Z,10.47
2022-09-28T14:12:50.226Z,10.35
2022-09-28T14:15:46.154Z,10.33
2022-09-28T14:18:16.958Z,10.46
2022-09-28T14:20:50.692Z,10.47
2022-09-28T14:23:37.581Z,10.59
2022-09-28T14:26:18.006Z,10.75
2022-09-28T14:28:49.038Z,10.73
2022-09-28T14:31:21.641Z,10.95
2022-09-28T14:33:54.787Z,11.05
2022-09-28T14:36:45.985Z,11.21
2022-09-28T14:39:44.835Z,11.34
2022-09-28T14:42:13.379Z,11.53
2022-09-28T14:45:05.371Z,11.63
2022-09-28T14:47:36.670Z,11.66
2022-09-28T14:50:32.229Z,11.67
2022-09-28T14:53:06.355Z,11.57
2022-09-28T14:55:35.699Z,11.56
2022-09-28T14:58:02.367Z,11.59
2022-09-28T15:00:30.360Z,11.69
2022-09-28T15:03:00.166Z,11.60
2022-09-28T15:05:49.875Z,11.76
2022-09-28T15:08:20.212Z,11.59
2022-09-28T15:10:47.714Z,11.66
2022-09-28T15:13:27.550Z,11.76
2022-09-28T15:16:15.360Z,11.89
2022-09-28T15:18:52.007Z,11.75
2022-09-28T15:21:18.384Z,11.62
2022-09-28T15:23:44.974Z,11.43
2022-09-28T15:26:27.329Z,11.42
2022-09-28T15:28:53.850Z,11.27
2022-09-28T15:31:22.293Z,11.23
2022-09-28T15:34:07.314Z,11.37
2022-09-28T15:36:41.253Z,10.98
2022-09-28T15:39:21.168Z,10.93
2022-09-28T15:41:48.700Z,10.86
2022-09-28T15:44:15.131Z,10.73
2022-09-28T15:46:42.799Z,10.77
2022-09-28T15:49:38.768Z,10.65
2022-09-28T15:52:05.783Z,10.63
2022-09-28T15:54:38.794Z,10.49
2022-09-28T15:57:05.179Z,10.52
2022-09-28T15:59:33.216Z,10.42
2022-09-28T16:02:11.847Z,10.38
2022-09-28T16:04:39.343Z,10.34
2022-09-28T16:07:17.478Z,10.38
2022-09-28T16:10:13.346Z,10.29
2022-09-28T16:12:39.721Z,10.21
2022-09-28T16:15:12.206Z,10.08
2022-09-28T16:17:38.605Z,10.09
2022-09-28T16:20:29.389Z,10.11
2022-09-28T16:22:57.127Z,10.05
2022-09-28T16:25:24.621Z,10.12
2022-09-28T16:27:52.729Z,10.01
2022-09-28T16:30:27.234Z,10.04
2022-09-28T16:32:53.655Z,9.98
2022-09-28T16:35:49.061Z,10.03
2022-09-28T16:38:16.682Z,9.99
2022-09-28T16:40:44.139Z,10.02
2022-09-28T16:43:26.573Z,10.02
2022-09-28T16:45:59.500Z,10.06
2022-09-28T16:48:27.273Z,10.05
2022-09-28T16:50:53.761Z,10.09
2022-09-28T16:53:38.618Z,10.01
2022-09-28T16:56:05.268Z,9.99
2022-09-28T16:58:31.961Z,9.99
2022-09-28T17:00:58.831Z,10.00
2022-09-28T17:03:25.734Z,10.01
2022-09-28T17:05:52.705Z,10.04
2022-09-28T17:08:22.201Z,10.02
2022-09-28T17:11:17.972Z,9.99
2022-09-28T17:13:46.022Z,9.96
2022-09-28T17:16:32.236Z,9.94
2022-09-28T17:19:03.547Z,9.99
2022-09-28T17:21:29.990Z,9.96
2022-09-28T17:23:56.422Z,9.97
2022-09-28T17:26:27.313Z,9.96
2022-09-28T17:28:53.846Z,9.85
2022-09-28T17:31:20.314Z,9.94
2022-09-28T17:33:46.759Z,9.96
2022-09-28T17:36:15.483Z,9.96
2022-09-28T17:38:42.890Z,9.94
2022-09-28T17:41:16.784Z,9.94
2022-09-28T17:43:46.255Z,9.89
2022-09-28T17:46:32.173Z,9.85
2022-09-28T17:48:59.823Z,9.91
2022-09-28T17:51:30.315Z,9.90
2022-09-28T17:54:00.958Z,9.92
2022-09-28T17:56:32.361Z,9.94
2022-09-28T17:59:00.221Z,9.88
2022-09-28T18:01:29.964Z,9.93
2022-09-28T18:03:56.434Z,9.94
2022-09-28T18:06:23.675Z,9.96
2022-09-28T18:08:50.079Z,9.94
2022-09-28T18:11:17.344Z,9.87
2022-09-28T18:13:45.901Z,9.84
2022-09-28T18:16:12.901Z,9.81
2022-09-28T18:18:39.887Z,9.79
2022-09-28T18:21:07.133Z,9.76
2022-09-28T18:23:37.490Z,9.73
2022-09-28T18:26:04.500Z,9.76
2022-09-28T18:28:31.175Z,9.79
2022-09-28T18:30:57.591Z,9.76
2022-09-28T18:33:23.971Z,9.78
2022-09-28T18:35:52.095Z,9.79
2022-09-28T18:38:18.624Z,9.83
2022-09-28T18:40:45.161Z,9.82
2022-09-28T18:43:11.563Z,9.78
2022-09-28T18:45:38.114Z,9.80
2022-09-28T18:48:04.509Z,9.76
2022-09-28T18:50:30.957Z,9.74
2022-09-28T18:53:11.386Z,9.78
2022-09-28T18:55:41.762Z,9.74
2022-09-28T18:58:09.262Z,9.68
2022-09-28T19:00:40.575Z,9.72
2022-09-28T19:03:07.332Z,9.71
2022-09-28T19:05:35.041Z,9.74
2022-09-28T19:08:01.706Z,9.73
2022-09-28T19:10:28.196Z,9.75
2022-09-28T19:12:54.588Z,9.74
2022-09-28T19:15:22.568Z,9.75
2022-09-28T19:17:49.905Z,9.71
2022-09-28T19:20:16.557Z,9.69
2022-09-28T19:22:44.120Z,9.69
2022-09-28T19:25:11.025Z,9.66
2022-09-28T19:27:37.426Z,9.68
2022-09-28T19:30:04.158Z,9.66
2022-09-28T19:32:30.518Z,9.66
2022-09-28T19:34:57.553Z,9.67
2022-09-28T19:37:24.015Z,9.69
2022-09-28T19:39:50.421Z,9.70
2022-09-28T19:42:16.838Z,9.69
2022-09-28T19:44:43.857Z,9.66
2022-09-28T19:47:11.613Z,9.67
2022-09-28T19:49:39.100Z,9.64
2022-09-28T19:52:15.643Z,9.62
2022-09-28T19:54:52.031Z,9.67
2022-09-28T19:57:19.557Z,9.68
2022-09-28T19:59:49.496Z,9.69
2022-09-28T20:02:18.667Z,9.69
2022-09-28T20:04:45.107Z,9.72
2022-09-28T20:07:11.539Z,9.67
2022-09-28T20:09:38.045Z,9.69
2022-09-28T20:12:04.529Z,9.66
2022-09-28T20:14:36.516Z,9.62
2022-09-28T20:17:05.951Z,9.59
2022-09-28T20:19:32.667Z,9.60
2022-09-28T20:22:02.883Z,9.59
2022-09-28T20:24:29.781Z,9.58
2022-09-28T20:26:56.220Z,9.55
2022-09-28T20:29:24.215Z,9.54
2022-09-28T20:31:51.710Z,9.55
2022-09-28T20:34:18.181Z,9.56
2022-09-28T20:36:44.565Z,9.55
2022-09-28T20:39:11.349Z,9.60
2022-09-28T20:41:37.814Z,9.61
2022-09-28T20:44:06.162Z,9.62
2022-09-28T20:46:34.630Z,9.63
2022-09-28T20:49:01.448Z,9.62
2022-09-28T20:51:27.850Z,9.60
2022-09-28T20:53:55.264Z,9.61
2022-09-28T20:56:23.181Z,9.59
2022-09-28T20:58:51.098Z,9.58
2022-09-28T21:01:17.518Z,9.57
2022-09-28T21:03:48.514Z,9.53
2022-09-28T21:06:16.158Z,9.52
2022-09-28T21:08:44.081Z,9.50
2022-09-28T21:11:13.852Z,9.49
2022-09-28T21:13:42.757Z,9.46
2022-09-28T21:16:14.258Z,9.46
2022-09-28T21:18:40.797Z,9.46
2022-09-28T21:21:08.333Z,9.50
2022-09-28T21:23:35.109Z,9.51
2022-09-28T21:26:24.569Z,9.52
2022-09-28T21:28:55.049Z,9.46
2022-09-28T21:31:26.210Z,9.51
2022-09-28T21:33:54.760Z,9.50
2022-09-28T21:36:21.202Z,9.50
2022-09-28T21:38:47.581Z,9.53
2022-09-28T21:41:14.030Z,9.52
2022-09-28T21:43:40.494Z,9.48
2022-09-28T21:46:07.045Z,9.44
2022-09-28T21:48:33.498Z,9.41
2022-09-28T21:51:01.168Z,9.44
2022-09-28T21:53:29.217Z,9.46
2022-09-28T21:55:56.087Z,9.42
2022-09-28T21:58:23.850Z,9.37
2022-09-28T22:00:58.225Z,9.31
2022-09-28T22:03:25.711Z,9.30
2022-09-28T22:05:52.346Z,9.28
2022-09-28T22:08:19.168Z,9.24
2022-09-28T22:10:45.571Z,9.29
2022-09-28T22:13:11.966Z,9.28
2022-09-28T22:15:38.799Z,9.32
2022-09-28T22:18:05.257Z,9.33
2022-09-28T22:20:31.611Z,9.32
2022-09-28T22:22:58.055Z,9.33
2022-09-28T22:25:24.549Z,9.26
2022-09-28T22:27:50.936Z,9.19
2022-09-28T22:30:17.380Z,9.11
2022-09-28T22:32:43.772Z,9.02
2022-09-28T22:35:10.182Z,8.94
2022-09-28T22:37:36.552Z,8.89
2022-09-28T22:40:03.503Z,8.80
2022-09-28T22:42:29.890Z,8.72
2022-09-28T22:44:56.290Z,8.62
2022-09-28T22:47:22.660Z,8.51
2022-09-28T22:49:49.265Z,8.44
2022-09-28T22:52:16.078Z,8.40
2022-09-28T22:54:42.482Z,8.36
2022-09-28T22:57:08.979Z,8.30
2022-09-28T22:59:35.368Z,8.25
2022-09-28T23:02:01.907Z,8.27
2022-09-28T23:04:28.834Z,8.24
2022-09-28T23:06:55.246Z,8.21
2022-09-28T23:09:21.677Z,8.16
2022-09-28T23:11:48.114Z,8.22
2022-09-28T23:14:14.679Z,8.22
2022-09-28T23:16:41.249Z,8.21
2022-09-28T23:19:07.645Z,8.22
2022-09-28T23:21:34.265Z,8.23
2022-09-28T23:24:03.561Z,8.23
2022-09-28T23:26:31.809Z,8.22
2022-09-28T23:28:58.363Z,8.21
2022-09-28T23:31:26.665Z,8.19
2022-09-28T23:33:59.969Z,8.14
2022-09-28T23:36:26.570Z,8.12
2022-09-28T23:38:52.998Z,8.10
2022-09-28T23:41:19.479Z,8.06
2022-09-28T23:43:45.865Z,8.04
2022-09-28T23:46:12.473Z,8.05
2022-09-28T23:48:38.984Z,8.03
2022-09-28T23:51:05.595Z,8.01
2022-09-28T23:53:34.972Z,7.99
2022-09-28T23:56:01.736Z,7.96
2022-09-28T23:58:28.181Z,7.93
